Weather at Indianapolis International Airport

Public forecast

Using degrees Fahrenheit for public forecast. Weather courtesy of forecast.io.

Current aviation weather report (METAR) for Indianapolis International Airport

Report is more than 6 hours old.

2022/11/14 14:54 (retrieved 2 years ago)

KIND 141454Z 08007KT 10SM FEW250 01/M06 A3037 RMK AO2 SLP292 T00111056 50003

Aviation forecast (TAF) for Indianapolis International Airport

Forecast is more than 12 hours old.

2023/02/22 18:22 (retrieved 1 year ago)

TAF KIND 221720Z 2218/2324 20014G27KT P6SM VCSH OVC020 WS020/22050KT TEMPO 2218/2219 14010KT FM222300 20017G31KT 6SM SHRA BR VCTS OVC025CB WS020/21045KT FM230200 23015G25KT P6SM VCSH SCT035 BKN060 FM230600 20010KT P6SM BKN100 FM231400 23018G28KT P6SM SCT035